sensor_id;sensor_type;location;lat;lon;timestamp;pressure;altitude;pressure_sealevel;temperature;humidity
39411;BME280;26579;43.238;23.124;2023-08-24T00:00:20;97039.69;;;26.69;50.03
39411;BME280;26579;43.238;23.124;2023-08-24T00:02:46;97038.06;;;26.68;49.98
39411;BME280;26579;43.238;23.124;2023-08-24T00:05:11;97044.66;;;26.65;50.06
39411;BME280;26579;43.238;23.124;2023-08-24T00:07:37;97037.84;;;26.51;50.35
39411;BME280;26579;43.238;23.124;2023-08-24T00:10:03;97044.22;;;26.50;50.67
39411;BME280;26579;43.238;23.124;2023-08-24T00:12:28;97040.56;;;26.44;50.92
39411;BME280;26579;43.238;23.124;2023-08-24T00:14:54;97041.38;;;26.45;50.96
39411;BME280;26579;43.238;23.124;2023-08-24T00:17:20;97042.38;;;26.50;50.93
39411;BME280;26579;43.238;23.124;2023-08-24T00:19:45;97030.03;;;26.49;50.85
39411;BME280;26579;43.238;23.124;2023-08-24T00:22:11;97047.47;;;26.52;50.78
39411;BME280;26579;43.238;23.124;2023-08-24T00:24:37;97039.53;;;26.45;51.40
39411;BME280;26579;43.238;23.124;2023-08-24T00:27:02;97047.53;;;26.45;51.42
39411;BME280;26579;43.238;23.124;2023-08-24T00:29:28;97036.13;;;26.38;51.89
39411;BME280;26579;43.238;23.124;2023-08-24T00:31:54;97047.38;;;26.40;51.88
39411;BME280;26579;43.238;23.124;2023-08-24T00:34:19;97053.03;;;26.32;52.24
39411;BME280;26579;43.238;23.124;2023-08-24T00:36:45;97047.53;;;26.27;52.24
39411;BME280;26579;43.238;23.124;2023-08-24T00:39:11;97038.44;;;26.16;52.05
39411;BME280;26579;43.238;23.124;2023-08-24T00:41:37;97047.16;;;26.23;52.39
39411;BME280;26579;43.238;23.124;2023-08-24T00:44:03;97037.38;;;26.17;52.69
39411;BME280;26579;43.238;23.124;2023-08-24T00:46:30;97047.25;;;26.16;52.74
39411;BME280;26579;43.238;23.124;2023-08-24T00:48:56;97042.97;;;26.15;52.54
39411;BME280;26579;43.238;23.124;2023-08-24T00:51:22;97046.72;;;26.08;52.87
39411;BME280;26579;43.238;23.124;2023-08-24T00:53:48;97046.13;;;26.06;52.92
39411;BME280;26579;43.238;23.124;2023-08-24T00:56:14;97041.59;;;26.06;52.63
39411;BME280;26579;43.238;23.124;2023-08-24T00:58:40;97043.00;;;26.09;53.13
39411;BME280;26579;43.238;23.124;2023-08-24T01:01:05;97014.03;;;25.94;52.97
39411;BME280;26579;43.238;23.124;2023-08-24T01:03:32;97033.22;;;26.03;52.69
39411;BME280;26579;43.238;23.124;2023-08-24T01:05:58;97023.25;;;25.98;52.88
39411;BME280;26579;43.238;23.124;2023-08-24T01:08:24;97028.25;;;26.06;52.88
39411;BME280;26579;43.238;23.124;2023-08-24T01:11:25;97025.31;;;26.14;52.35
39411;BME280;26579;43.238;23.124;2023-08-24T01:16:28;97020.78;;;26.15;52.16
39411;BME280;26579;43.238;23.124;2023-08-24T01:18:59;97010.78;;;26.10;52.56
39411;BME280;26579;43.238;23.124;2023-08-24T01:21:27;97024.13;;;26.10;52.46
39411;BME280;26579;43.238;23.124;2023-08-24T01:24:13;97022.50;;;26.09;52.77
39411;BME280;26579;43.238;23.124;2023-08-24T01:26:43;97023.16;;;26.05;52.93
39411;BME280;26579;43.238;23.124;2023-08-24T01:29:10;97011.53;;;25.99;53.12
39411;BME280;26579;43.238;23.124;2023-08-24T01:31:35;97026.72;;;25.99;53.24
39411;BME280;26579;43.238;23.124;2023-08-24T01:34:01;97029.59;;;25.97;53.08
39411;BME280;26579;43.238;23.124;2023-08-24T01:36:27;97027.16;;;25.95;53.19
39411;BME280;26579;43.238;23.124;2023-08-24T01:39:08;97010.78;;;25.92;53.15
39411;BME280;26579;43.238;23.124;2023-08-24T01:41:37;97028.19;;;25.94;53.39
39411;BME280;26579;43.238;23.124;2023-08-24T01:44:03;97026.91;;;25.97;53.51
39411;BME280;26579;43.238;23.124;2023-08-24T01:46:31;97023.88;;;25.93;53.67
39411;BME280;26579;43.238;23.124;2023-08-24T01:48:59;97032.25;;;25.97;53.62
39411;BME280;26579;43.238;23.124;2023-08-24T01:51:25;97030.84;;;25.94;53.47
39411;BME280;26579;43.238;23.124;2023-08-24T01:53:53;97023.06;;;25.93;53.10
39411;BME280;26579;43.238;23.124;2023-08-24T01:56:18;97031.81;;;26.00;53.53
39411;BME280;26579;43.238;23.124;2023-08-24T01:58:44;97026.91;;;25.97;53.17
39411;BME280;26579;43.238;23.124;2023-08-24T02:01:10;97025.13;;;25.91;53.51
39411;BME280;26579;43.238;23.124;2023-08-24T02:03:36;97028.63;;;25.91;53.59
39411;BME280;26579;43.238;23.124;2023-08-24T02:06:02;97029.38;;;25.99;53.07
39411;BME280;26579;43.238;23.124;2023-08-24T02:08:29;97031.09;;;25.93;53.47
39411;BME280;26579;43.238;23.124;2023-08-24T02:10:55;97031.28;;;25.91;53.75
39411;BME280;26579;43.238;23.124;2023-08-24T02:13:21;97032.78;;;25.87;53.70
39411;BME280;26579;43.238;23.124;2023-08-24T02:15:46;97029.94;;;25.82;53.81
39411;BME280;26579;43.238;23.124;2023-08-24T02:18:12;97020.50;;;25.80;53.86
39411;BME280;26579;43.238;23.124;2023-08-24T02:20:38;97027.22;;;25.89;53.43
39411;BME280;26579;43.238;23.124;2023-08-24T02:23:05;97030.84;;;25.94;53.58
39411;BME280;26579;43.238;23.124;2023-08-24T02:25:31;97023.97;;;25.87;53.75
39411;BME280;26579;43.238;23.124;2023-08-24T02:27:57;97033.38;;;25.89;54.10
39411;BME280;26579;43.238;23.124;2023-08-24T02:30:23;97020.94;;;25.83;54.32
39411;BME280;26579;43.238;23.124;2023-08-24T02:32:49;97025.81;;;25.86;54.16
39411;BME280;26579;43.238;23.124;2023-08-24T02:35:15;97031.34;;;25.85;54.17
39411;BME280;26579;43.238;23.124;2023-08-24T02:37:41;97024.81;;;25.81;54.41
39411;BME280;26579;43.238;23.124;2023-08-24T02:40:07;97038.56;;;25.84;54.50
39411;BME280;26579;43.238;23.124;2023-08-24T02:42:33;97031.03;;;25.74;54.39
39411;BME280;26579;43.238;23.124;2023-08-24T02:44:59;97041.25;;;25.78;54.47
39411;BME280;26579;43.238;23.124;2023-08-24T02:47:25;97044.72;;;25.78;54.30
39411;BME280;26579;43.238;23.124;2023-08-24T02:49:50;97039.16;;;25.80;54.56
39411;BME280;26579;43.238;23.124;2023-08-24T02:52:16;97034.06;;;25.78;54.93
39411;BME280;26579;43.238;23.124;2023-08-24T02:54:42;97030.59;;;25.78;54.75
39411;BME280;26579;43.238;23.124;2023-08-24T02:57:07;97033.84;;;25.80;55.01
39411;BME280;26579;43.238;23.124;2023-08-24T02:59:33;97032.41;;;25.77;54.71
39411;BME280;26579;43.238;23.124;2023-08-24T03:01:59;97029.09;;;25.82;54.70
39411;BME280;26579;43.238;23.124;2023-08-24T03:04:25;97024.66;;;25.75;54.97
39411;BME280;26579;43.238;23.124;2023-08-24T03:06:51;97029.38;;;25.73;55.18
39411;BME280;26579;43.238;23.124;2023-08-24T03:09:18;97028.84;;;25.65;55.41
39411;BME280;26579;43.238;23.124;2023-08-24T03:11:44;97031.75;;;25.63;55.43
39411;BME280;26579;43.238;23.124;2023-08-24T03:14:10;97031.78;;;25.57;55.65
39411;BME280;26579;43.238;23.124;2023-08-24T03:16:39;97035.75;;;25.47;55.99
39411;BME280;26579;43.238;23.124;2023-08-24T03:19:05;97028.44;;;25.43;56.04
39411;BME280;26579;43.238;23.124;2023-08-24T03:21:33;97030.06;;;25.44;56.08
39411;BME280;26579;43.238;23.124;2023-08-24T03:23:59;97028.03;;;25.39;56.03
39411;BME280;26579;43.238;23.124;2023-08-24T03:26:24;97011.94;;;25.27;56.19
39411;BME280;26579;43.238;23.124;2023-08-24T03:28:52;97024.81;;;25.30;56.44
39411;BME280;26579;43.238;23.124;2023-08-24T03:31:18;97021.34;;;25.30;56.35
39411;BME280;26579;43.238;23.124;2023-08-24T03:33:45;97021.94;;;25.32;56.86
39411;BME280;26579;43.238;23.124;2023-08-24T03:36:11;97025.44;;;25.33;56.55
39411;BME280;26579;43.238;23.124;2023-08-24T03:38:36;97020.78;;;25.28;56.51
39411;BME280;26579;43.238;23.124;2023-08-24T03:41:03;97028.53;;;25.29;56.77
39411;BME280;26579;43.238;23.124;2023-08-24T03:43:33;97030.16;;;25.30;56.24
39411;BME280;26579;43.238;23.124;2023-08-24T03:46:00;97031.53;;;25.40;56.00
39411;BME280;26579;43.238;23.124;2023-08-24T03:48:26;97026.22;;;25.40;56.04
39411;BME280;26579;43.238;23.124;2023-08-24T03:50:56;97037.00;;;25.45;55.80
39411;BME280;26579;43.238;23.124;2023-08-24T03:53:22;97040.28;;;25.47;55.59
39411;BME280;26579;43.238;23.124;2023-08-24T03:55:49;97034.94;;;25.47;55.55
39411;BME280;26579;43.238;23.124;2023-08-24T03:58:17;97042.13;;;25.46;55.49
39411;BME280;26579;43.238;23.124;2023-08-24T04:00:44;97040.72;;;25.44;55.90
39411;BME280;26579;43.238;23.124;2023-08-24T04:03:10;97053.00;;;25.45;56.00
39411;BME280;26579;43.238;23.124;2023-08-24T04:05:35;97049.09;;;25.47;56.13
39411;BME280;26579;43.238;23.124;2023-08-24T04:08:01;97039.75;;;25.38;56.20
39411;BME280;26579;43.238;23.124;2023-08-24T04:10:27;97047.28;;;25.41;56.10
39411;BME280;26579;43.238;23.124;2023-08-24T04:12:53;97053.94;;;25.32;56.48
39411;BME280;26579;43.238;23.124;2023-08-24T04:15:19;97050.66;;;25.30;56.45
39411;BME280;26579;43.238;23.124;2023-08-24T04:17:46;97045.06;;;25.38;56.64
39411;BME280;26579;43.238;23.124;2023-08-24T04:20:12;97046.84;;;25.44;56.36
39411;BME280;26579;43.238;23.124;2023-08-24T04:22:37;97049.78;;;25.36;56.38
39411;BME280;26579;43.238;23.124;2023-08-24T04:25:04;97048.97;;;25.36;56.15
39411;BME280;26579;43.238;23.124;2023-08-24T04:27:29;97053.00;;;25.45;56.16
39411;BME280;26579;43.238;23.124;2023-08-24T04:29:55;97041.75;;;25.43;56.02
39411;BME280;26579;43.238;23.124;2023-08-24T04:32:22;97042.56;;;25.43;56.43
39411;BME280;26579;43.238;23.124;2023-08-24T04:34:48;97043.38;;;25.44;56.29
39411;BME280;26579;43.238;23.124;2023-08-24T04:37:13;97041.09;;;25.47;56.32
39411;BME280;26579;43.238;23.124;2023-08-24T04:39:39;97050.44;;;25.57;56.30
39411;BME280;26579;43.238;23.124;2023-08-24T04:42:05;97050.41;;;25.63;55.77
39411;BME280;26579;43.238;23.124;2023-08-24T04:44:32;97045.88;;;25.64;56.10
39411;BME280;26579;43.238;23.124;2023-08-24T04:46:57;97055.88;;;25.68;55.64
39411;BME280;26579;43.238;23.124;2023-08-24T04:49:23;97046.78;;;25.76;55.93
39411;BME280;26579;43.238;23.124;2023-08-24T04:51:49;97051.28;;;25.82;55.82
39411;BME280;26579;43.238;23.124;2023-08-24T04:54:15;97056.69;;;25.94;55.33
39411;BME280;26579;43.238;23.124;2023-08-24T04:56:40;97048.88;;;25.99;55.34
39411;BME280;26579;43.238;23.124;2023-08-24T04:59:06;97060.06;;;26.08;54.92
39411;BME280;26579;43.238;23.124;2023-08-24T05:01:32;97065.28;;;26.21;55.06
39411;BME280;26579;43.238;23.124;2023-08-24T05:03:58;97059.41;;;26.31;54.65
39411;BME280;26579;43.238;23.124;2023-08-24T05:06:23;97064.22;;;26.40;54.67
39411;BME280;26579;43.238;23.124;2023-08-24T05:08:49;97066.97;;;26.52;54.94
39411;BME280;26579;43.238;23.124;2023-08-24T05:11:20;97068.28;;;26.61;54.30
39411;BME280;26579;43.238;23.124;2023-08-24T05:13:46;97065.47;;;26.75;54.29
39411;BME280;26579;43.238;23.124;2023-08-24T05:16:12;97078.44;;;26.90;53.97
39411;BME280;26579;43.238;23.124;2023-08-24T05:18:38;97080.69;;;27.04;54.05
39411;BME280;26579;43.238;23.124;2023-08-24T05:21:04;97078.09;;;27.16;54.11
39411;BME280;26579;43.238;23.124;2023-08-24T05:23:33;97080.94;;;27.33;54.05
39411;BME280;26579;43.238;23.124;2023-08-24T05:26:01;97071.41;;;27.37;54.32
39411;BME280;26579;43.238;23.124;2023-08-24T05:28:28;97076.19;;;27.47;53.92
39411;BME280;26579;43.238;23.124;2023-08-24T05:30:54;97081.31;;;27.60;53.80
39411;BME280;26579;43.238;23.124;2023-08-24T05:33:21;97071.09;;;27.69;53.34
39411;BME280;26579;43.238;23.124;2023-08-24T05:35:47;97077.66;;;27.85;53.15
39411;BME280;26579;43.238;23.124;2023-08-24T05:38:14;97070.56;;;27.90;53.00
39411;BME280;26579;43.238;23.124;2023-08-24T05:40:40;97081.38;;;28.07;52.33
39411;BME280;26579;43.238;23.124;2023-08-24T05:43:05;97083.47;;;28.17;52.51
39411;BME280;26579;43.238;23.124;2023-08-24T05:45:31;97091.22;;;28.30;51.92
39411;BME280;26579;43.238;23.124;2023-08-24T05:47:57;97079.13;;;28.39;51.66
39411;BME280;26579;43.238;23.124;2023-08-24T05:50:22;97071.34;;;28.50;51.45
39411;BME280;26579;43.238;23.124;2023-08-24T05:52:48;97089.69;;;28.70;50.77
39411;BME280;26579;43.238;23.124;2023-08-24T05:55:14;97088.59;;;28.82;50.79
39411;BME280;26579;43.238;23.124;2023-08-24T05:57:40;97094.81;;;29.00;51.15
39411;BME280;26579;43.238;23.124;2023-08-24T06:00:06;97082.72;;;29.09;50.76
39411;BME280;26579;43.238;23.124;2023-08-24T06:02:39;97090.34;;;29.17;51.40
39411;BME280;26579;43.238;23.124;2023-08-24T06:05:05;97087.94;;;29.32;51.02
39411;BME280;26579;43.238;23.124;2023-08-24T06:07:31;97082.75;;;29.43;51.08
39411;BME280;26579;43.238;23.124;2023-08-24T06:09:57;97084.88;;;29.58;50.55
39411;BME280;26579;43.238;23.124;2023-08-24T06:12:23;97086.69;;;29.69;48.87
39411;BME280;26579;43.238;23.124;2023-08-24T06:14:48;97092.53;;;29.83;48.69
39411;BME280;26579;43.238;23.124;2023-08-24T06:17:14;97087.50;;;29.86;47.58
39411;BME280;26579;43.238;23.124;2023-08-24T06:19:39;97080.66;;;29.95;46.33
39411;BME280;26579;43.238;23.124;2023-08-24T06:22:05;97080.25;;;30.04;45.57
39411;BME280;26579;43.238;23.124;2023-08-24T06:24:31;97073.38;;;30.13;45.10
39411;BME280;26579;43.238;23.124;2023-08-24T06:26:57;97054.09;;;30.16;45.29
39411;BME280;26579;43.238;23.124;2023-08-24T06:29:22;97071.88;;;30.39;44.21
39411;BME280;26579;43.238;23.124;2023-08-24T06:31:48;97070.72;;;30.52;44.24
39411;BME280;26579;43.238;23.124;2023-08-24T06:34:14;97066.56;;;30.66;44.50
39411;BME280;26579;43.238;23.124;2023-08-24T06:36:39;97072.06;;;30.76;42.00
39411;BME280;26579;43.238;23.124;2023-08-24T06:39:05;97064.66;;;30.83;42.11
39411;BME280;26579;43.238;23.124;2023-08-24T06:41:34;97061.00;;;30.95;42.70
39411;BME280;26579;43.238;23.124;2023-08-24T06:44:06;97081.91;;;31.15;43.18
39411;BME280;26579;43.238;23.124;2023-08-24T06:46:31;97074.91;;;31.13;42.82
39411;BME280;26579;43.238;23.124;2023-08-24T06:48:57;97077.41;;;31.20;42.33
39411;BME280;26579;43.238;23.124;2023-08-24T06:51:23;97069.69;;;31.29;42.62
39411;BME280;26579;43.238;23.124;2023-08-24T06:53:48;97062.28;;;31.41;43.34
39411;BME280;26579;43.238;23.124;2023-08-24T06:56:14;97067.72;;;31.46;42.39
39411;BME280;26579;43.238;23.124;2023-08-24T06:58:40;97067.81;;;31.62;43.07
39411;BME280;26579;43.238;23.124;2023-08-24T07:01:06;97067.59;;;31.63;42.33
39411;BME280;26579;43.238;23.124;2023-08-24T07:03:32;97073.63;;;31.80;42.98
39411;BME280;26579;43.238;23.124;2023-08-24T07:05:57;97069.75;;;31.98;42.90
39411;BME280;26579;43.238;23.124;2023-08-24T07:08:23;97068.47;;;32.11;40.88
39411;BME280;26579;43.238;23.124;2023-08-24T07:10:49;97066.09;;;32.15;39.46
39411;BME280;26579;43.238;23.124;2023-08-24T07:13:14;97064.00;;;32.27;39.99
39411;BME280;26579;43.238;23.124;2023-08-24T07:15:40;97067.03;;;32.41;40.54
39411;BME280;26579;43.238;23.124;2023-08-24T07:18:06;97060.88;;;32.51;40.65
39411;BME280;26579;43.238;23.124;2023-08-24T07:20:32;97061.19;;;32.59;39.65
39411;BME280;26579;43.238;23.124;2023-08-24T07:22:58;97046.41;;;32.67;39.99
39411;BME280;26579;43.238;23.124;2023-08-24T07:25:24;97056.69;;;32.85;38.86
39411;BME280;26579;43.238;23.124;2023-08-24T07:27:50;97058.84;;;32.83;38.59
39411;BME280;26579;43.238;23.124;2023-08-24T07:30:16;97046.44;;;32.82;38.62
39411;BME280;26579;43.238;23.124;2023-08-24T07:32:41;97050.81;;;32.99;38.33
39411;BME280;26579;43.238;23.124;2023-08-24T07:35:08;97045.91;;;32.80;38.21
39411;BME280;26579;43.238;23.124;2023-08-24T07:37:33;97044.03;;;32.86;38.11
39411;BME280;26579;43.238;23.124;2023-08-24T07:39:59;97053.50;;;32.99;37.75
39411;BME280;26579;43.238;23.124;2023-08-24T07:42:25;97053.50;;;32.99;36.85
39411;BME280;26579;43.238;23.124;2023-08-24T07:44:50;97034.63;;;32.99;37.26
39411;BME280;26579;43.238;23.124;2023-08-24T07:47:16;97060.31;;;33.27;36.92
39411;BME280;26579;43.238;23.124;2023-08-24T07:49:42;97045.50;;;33.40;37.01
39411;BME280;26579;43.238;23.124;2023-08-24T07:52:07;97054.41;;;33.55;36.48
39411;BME280;26579;43.238;23.124;2023-08-24T07:54:33;97056.81;;;33.62;36.22
39411;BME280;26579;43.238;23.124;2023-08-24T07:56:59;97052.78;;;33.75;36.53
39411;BME280;26579;43.238;23.124;2023-08-24T07:59:24;97058.16;;;33.90;36.46
39411;BME280;26579;43.238;23.124;2023-08-24T08:01:50;97049.50;;;33.93;36.04
39411;BME280;26579;43.238;23.124;2023-08-24T08:04:16;97060.31;;;33.98;35.44
39411;BME280;26579;43.238;23.124;2023-08-24T08:06:42;97057.63;;;33.93;35.25
39411;BME280;26579;43.238;23.124;2023-08-24T08:09:07;97052.47;;;33.97;35.28
39411;BME280;26579;43.238;23.124;2023-08-24T08:11:33;97052.72;;;34.00;35.75
39411;BME280;26579;43.238;23.124;2023-08-24T08:13:58;97047.06;;;34.12;35.54
39411;BME280;26579;43.238;23.124;2023-08-24T08:16:24;97046.72;;;34.29;35.18
39411;BME280;26579;43.238;23.124;2023-08-24T08:18:50;97049.16;;;34.36;35.61
39411;BME280;26579;43.238;23.124;2023-08-24T08:21:17;97043.22;;;34.39;34.52
39411;BME280;26579;43.238;23.124;2023-08-24T08:23:43;97052.88;;;34.50;34.13
39411;BME280;26579;43.238;23.124;2023-08-24T08:26:13;97050.72;;;34.57;34.83
39411;BME280;26579;43.238;23.124;2023-08-24T08:28:39;97042.09;;;34.45;34.44
39411;BME280;26579;43.238;23.124;2023-08-24T08:31:05;97041.50;;;34.58;34.59
39411;BME280;26579;43.238;23.124;2023-08-24T08:33:31;97039.81;;;34.73;34.83
39411;BME280;26579;43.238;23.124;2023-08-24T08:35:57;97046.81;;;34.79;34.57
39411;BME280;26579;43.238;23.124;2023-08-24T08:38:22;97035.41;;;34.92;34.10
39411;BME280;26579;43.238;23.124;2023-08-24T08:40:49;97032.63;;;35.02;33.70
39411;BME280;26579;43.238;23.124;2023-08-24T08:43:15;97032.13;;;34.95;33.34
39411;BME280;26579;43.238;23.124;2023-08-24T08:45:41;97026.44;;;34.97;33.10
39411;BME280;26579;43.238;23.124;2023-08-24T08:48:07;97029.69;;;34.93;33.02
39411;BME280;26579;43.238;23.124;2023-08-24T08:50:34;97029.97;;;34.97;32.77
39411;BME280;26579;43.238;23.124;2023-08-24T08:53:00;97035.50;;;34.77;32.73
39411;BME280;26579;43.238;23.124;2023-08-24T08:55:25;97027.44;;;34.61;33.72
39411;BME280;26579;43.238;23.124;2023-08-24T08:57:53;97032.72;;;34.87;34.45
39411;BME280;26579;43.238;23.124;2023-08-24T09:00:21;97029.69;;;34.93;34.27
39411;BME280;26579;43.238;23.124;2023-08-24T09:02:47;97028.94;;;34.88;34.00
39411;BME280;26579;43.238;23.124;2023-08-24T09:05:15;97035.06;;;34.99;34.70
39411;BME280;26579;43.238;23.124;2023-08-24T09:07:41;97035.53;;;35.16;34.31
39411;BME280;26579;43.238;23.124;2023-08-24T09:10:07;97036.69;;;35.05;33.85
39411;BME280;26579;43.238;23.124;2023-08-24T09:12:34;97034.19;;;35.13;34.75
39411;BME280;26579;43.238;23.124;2023-08-24T09:15:03;97033.38;;;35.13;34.51
39411;BME280;26579;43.238;23.124;2023-08-24T09:17:29;97006.09;;;35.09;34.55
39411;BME280;26579;43.238;23.124;2023-08-24T09:19:58;97027.94;;;35.18;34.06
39411;BME280;26579;43.238;23.124;2023-08-24T09:22:24;97007.47;;;35.41;34.79
39411;BME280;26579;43.238;23.124;2023-08-24T09:24:50;97005.03;;;35.40;33.49
39411;BME280;26579;43.238;23.124;2023-08-24T09:27:17;97006.03;;;35.49;33.48
39411;BME280;26579;43.238;23.124;2023-08-24T09:29:47;97014.91;;;35.54;33.07
39411;BME280;26579;43.238;23.124;2023-08-24T09:32:13;97014.09;;;35.59;32.65
39411;BME280;26579;43.238;23.124;2023-08-24T09:34:39;97013.94;;;35.74;32.97
39411;BME280;26579;43.238;23.124;2023-08-24T09:37:11;97021.13;;;35.89;31.56
39411;BME280;26579;43.238;23.124;2023-08-24T09:39:37;97015.59;;;35.75;31.77
39411;BME280;26579;43.238;23.124;2023-08-24T09:42:03;97019.03;;;35.81;31.53
39411;BME280;26579;43.238;23.124;2023-08-24T09:44:29;97017.38;;;35.85;31.80
39411;BME280;26579;43.238;23.124;2023-08-24T09:46:55;97001.41;;;35.83;30.95
39411;BME280;26579;43.238;23.124;2023-08-24T09:49:20;96997.34;;;35.81;31.29
39411;BME280;26579;43.238;23.124;2023-08-24T09:51:48;97014.09;;;35.88;31.91
39411;BME280;26579;43.238;23.124;2023-08-24T09:54:15;96997.31;;;35.86;32.04
39411;BME280;26579;43.238;23.124;2023-08-24T09:56:42;97005.38;;;35.67;32.15
39411;BME280;26579;43.238;23.124;2023-08-24T09:59:11;96995.63;;;35.66;32.02
39411;BME280;26579;43.238;23.124;2023-08-24T10:01:42;96985.03;;;35.41;32.46
39411;BME280;26579;43.238;23.124;2023-08-24T10:04:08;96994.38;;;35.19;33.05
39411;BME280;26579;43.238;23.124;2023-08-24T10:06:36;96983.66;;;35.09;33.04
39411;BME280;26579;43.238;23.124;2023-08-24T10:09:07;96990.47;;;35.35;32.41
39411;BME280;26579;43.238;23.124;2023-08-24T10:11:36;96993.34;;;35.49;32.85
39411;BME280;26579;43.238;23.124;2023-08-24T10:14:23;96987.94;;;35.15;32.10
39411;BME280;26579;43.238;23.124;2023-08-24T10:16:50;96986.56;;;34.73;33.28
39411;BME280;26579;43.238;23.124;2023-08-24T10:19:17;96984.75;;;34.58;33.62
39411;BME280;26579;43.238;23.124;2023-08-24T10:21:42;96969.06;;;34.60;33.63
39411;BME280;26579;43.238;23.124;2023-08-24T10:24:09;96975.59;;;34.93;33.18
39411;BME280;26579;43.238;23.124;2023-08-24T10:26:38;96952.94;;;35.29;32.26
39411;BME280;26579;43.238;23.124;2023-08-24T10:29:05;96964.34;;;35.55;31.62
39411;BME280;26579;43.238;23.124;2023-08-24T10:31:32;96949.84;;;35.70;32.26
39411;BME280;26579;43.238;23.124;2023-08-24T10:33:59;96945.91;;;35.57;32.11
39411;BME280;26579;43.238;23.124;2023-08-24T10:36:26;96940.28;;;35.48;31.95
39411;BME280;26579;43.238;23.124;2023-08-24T10:38:55;96940.50;;;34.88;32.56
39411;BME280;26579;43.238;23.124;2023-08-24T10:41:26;96945.94;;;34.39;33.48
39411;BME280;26579;43.238;23.124;2023-08-24T10:43:52;96942.50;;;34.18;33.53
39411;BME280;26579;43.238;23.124;2023-08-24T10:46:17;96937.97;;;33.98;33.85
39411;BME280;26579;43.238;23.124;2023-08-24T10:53:41;96936.22;;;33.52;34.79
39411;BME280;26579;43.238;23.124;2023-08-24T10:56:16;96951.31;;;33.38;35.29
39411;BME280;26579;43.238;23.124;2023-08-24T10:58:43;96948.34;;;33.24;35.40
39411;BME280;26579;43.238;23.124;2023-08-24T11:01:19;96948.09;;;33.26;35.54
39411;BME280;26579;43.238;23.124;2023-08-24T11:03:55;96939.44;;;33.19;35.86
39411;BME280;26579;43.238;23.124;2023-08-24T11:06:22;96942.97;;;33.14;36.10
39411;BME280;26579;43.238;23.124;2023-08-24T11:08:49;96954.00;;;33.07;36.82
39411;BME280;26579;43.238;23.124;2023-08-24T11:11:21;96954.00;;;32.92;36.61
39411;BME280;26579;43.238;23.124;2023-08-24T11:14:13;96966.41;;;32.93;37.57
39411;BME280;26579;43.238;23.124;2023-08-24T11:16:41;96961.75;;;32.63;39.65
39411;BME280;26579;43.238;23.124;2023-08-24T11:19:08;96968.91;;;32.27;39.99
39411;BME280;26579;43.238;23.124;2023-08-24T11:21:36;96964.13;;;31.86;41.14
39411;BME280;26579;43.238;23.124;2023-08-24T11:24:02;96969.91;;;31.63;41.87
39411;BME280;26579;43.238;23.124;2023-08-24T11:26:29;96958.22;;;31.42;42.56
39411;BME280;26579;43.238;23.124;2023-08-24T11:28:55;96970.75;;;31.31;42.12
39411;BME280;26579;43.238;23.124;2023-08-24T11:31:21;96962.56;;;31.16;41.80
39411;BME280;26579;43.238;23.124;2023-08-24T11:33:47;96979.44;;;31.11;41.91
39411;BME280;26579;43.238;23.124;2023-08-24T11:36:13;96985.34;;;31.08;42.69
39411;BME280;26579;43.238;23.124;2023-08-24T11:38:42;96971.28;;;31.01;42.57
39411;BME280;26579;43.238;23.124;2023-08-24T11:41:14;96975.78;;;30.90;42.61
39411;BME280;26579;43.238;23.124;2023-08-24T11:43:42;96969.41;;;30.74;43.46
39411;BME280;26579;43.238;23.124;2023-08-24T11:46:07;96961.78;;;30.66;43.63
39411;BME280;26579;43.238;23.124;2023-08-24T11:48:33;96973.09;;;30.68;44.49
39411;BME280;26579;43.238;23.124;2023-08-24T11:50:59;96973.56;;;30.60;44.51
39411;BME280;26579;43.238;23.124;2023-08-24T11:53:26;96975.06;;;30.51;44.75
39411;BME280;26579;43.238;23.124;2023-08-24T11:55:54;96982.06;;;30.52;43.90
39411;BME280;26579;43.238;23.124;2023-08-24T11:58:20;97001.13;;;30.50;44.13
39411;BME280;26579;43.238;23.124;2023-08-24T12:00:46;96979.97;;;30.32;44.83
39411;BME280;26579;43.238;23.124;2023-08-24T12:03:12;97005.38;;;30.46;44.22
39411;BME280;26579;43.238;23.124;2023-08-24T12:05:39;97002.63;;;30.41;42.83
39411;BME280;26579;43.238;23.124;2023-08-24T12:08:05;96982.53;;;30.21;42.22
39411;BME280;26579;43.238;23.124;2023-08-24T12:10:31;96987.09;;;30.04;39.97
39411;BME280;26579;43.238;23.124;2023-08-24T12:13:04;96978.66;;;29.95;39.16
39411;BME280;26579;43.238;23.124;2023-08-24T12:15:30;96986.09;;;29.88;38.74
39411;BME280;26579;43.238;23.124;2023-08-24T12:17:56;96999.94;;;29.80;40.94
39411;BME280;26579;43.238;23.124;2023-08-24T12:20:22;97000.19;;;29.62;40.11
39411;BME280;26579;43.238;23.124;2023-08-24T12:25:17;97001.63;;;29.52;39.63
39411;BME280;26579;43.238;23.124;2023-08-24T12:27:42;96989.16;;;29.41;39.78
39411;BME280;26579;43.238;23.124;2023-08-24T12:30:10;96990.94;;;29.36;39.19
39411;BME280;26579;43.238;23.124;2023-08-24T12:32:47;96978.09;;;29.21;38.15
39411;BME280;26579;43.238;23.124;2023-08-24T12:35:14;96986.38;;;29.19;35.08
39411;BME280;26579;43.238;23.124;2023-08-24T12:37:40;96979.31;;;29.13;35.15
39411;BME280;26579;43.238;23.124;2023-08-24T12:40:07;96977.13;;;29.10;37.17
39411;BME280;26579;43.238;23.124;2023-08-24T12:42:33;96981.44;;;28.99;39.97
39411;BME280;26579;43.238;23.124;2023-08-24T12:44:58;96963.53;;;28.54;40.17
39411;BME280;26579;43.238;23.124;2023-08-24T12:47:24;96974.34;;;28.48;42.53
39411;BME280;26579;43.238;23.124;2023-08-24T12:49:50;96967.22;;;28.25;42.27
39411;BME280;26579;43.238;23.124;2023-08-24T12:52:16;96957.94;;;28.04;43.68
39411;BME280;26579;43.238;23.124;2023-08-24T12:54:42;96952.53;;;27.87;43.48
39411;BME280;26579;43.238;23.124;2023-08-24T12:57:08;96966.94;;;27.62;45.60